createdAt,value
2018-11-14T00:00:25.250Z,89.48
2018-11-14T00:01:25.254Z,89.38
2018-11-14T00:02:25.335Z,89.38
2018-11-14T00:03:25.215Z,89.38
2018-11-14T00:04:25.166Z,89.89
2018-11-14T00:05:25.175Z,89.89
2018-11-14T00:06:25.950Z,89.79
2018-11-14T00:07:25.148Z,89.58
2018-11-14T00:08:25.132Z,89.58
2018-11-14T00:09:25.140Z,89.89
2018-11-14T00:10:25.100Z,89.58
2018-11-14T00:11:25.082Z,89.62
2018-11-14T00:12:25.096Z,89.42
2018-11-14T00:13:25.095Z,89.38
2018-11-14T00:14:25.050Z,89.79
2018-11-14T00:15:25.043Z,89.52
2018-11-14T00:16:25.030Z,89.83
2018-11-14T00:17:25.023Z,90.14
2018-11-14T00:18:25.041Z,89.52
2018-11-14T00:19:25.090Z,90.25
2018-11-14T00:20:25.573Z,89.62
2018-11-14T00:21:24.975Z,90.04
2018-11-14T00:22:24.959Z,90.14
2018-11-14T00:23:24.948Z,89.73
2018-11-14T00:24:24.988Z,90.25
2018-11-14T00:25:24.941Z,89.42
2018-11-14T00:26:24.914Z,89.22
2018-11-14T00:27:24.901Z,89.62
2018-11-14T00:28:24.891Z,89.42
2018-11-14T00:29:24.953Z,89.32
2018-11-14T00:30:24.915Z,90.04
2018-11-14T00:31:24.858Z,90.04
2018-11-14T00:32:24.851Z,89.46
2018-11-14T00:33:24.847Z,89.67
2018-11-14T00:34:24.832Z,89.62
2018-11-14T00:35:24.815Z,89.83
2018-11-14T00:36:24.849Z,89.67
2018-11-14T00:37:24.787Z,89.77
2018-11-14T00:38:24.776Z,89.36
2018-11-14T00:39:24.767Z,90.28
2018-11-14T00:40:24.755Z,90.28
2018-11-14T00:41:24.746Z,89.98
2018-11-14T00:42:24.771Z,90.19
2018-11-14T00:43:24.714Z,90.74
2018-11-14T00:44:24.713Z,90.64
2018-11-14T00:45:24.697Z,90.64
2018-11-14T00:46:24.702Z,90.84
2018-11-14T00:47:24.687Z,90.64
2018-11-14T00:48:24.679Z,90.84
2018-11-14T00:49:24.653Z,90.70
2018-11-14T00:50:24.636Z,90.80
2018-11-14T00:51:24.628Z,90.70
2018-11-14T00:52:24.629Z,90.43
2018-11-14T00:53:24.613Z,90.74
2018-11-14T00:54:24.619Z,90.95
2018-11-14T00:55:24.584Z,91.26
2018-11-14T00:56:24.570Z,91.56
2018-11-14T00:57:24.553Z,91.56
2018-11-14T00:58:24.568Z,91.36
2018-11-14T00:59:24.533Z,91.56
2018-11-14T01:00:24.547Z,91.05
2018-11-14T01:01:24.572Z,91.05
2018-11-14T01:02:24.505Z,91.16
2018-11-14T01:03:24.496Z,90.95
2018-11-14T01:04:24.505Z,91.46
2018-11-14T01:05:24.470Z,91.36
2018-11-14T01:06:25.447Z,91.56
2018-11-14T01:07:24.451Z,91.26
2018-11-14T01:08:24.436Z,91.56
2018-11-14T01:09:24.450Z,91.77
2018-11-14T01:10:24.412Z,91.77
2018-11-14T01:11:24.455Z,91.26
2018-11-14T01:12:24.402Z,91.46
2018-11-14T01:13:24.381Z,91.46
2018-11-14T01:14:24.389Z,91.77
2018-11-14T01:15:24.356Z,91.67
2018-11-14T01:16:24.344Z,91.56
2018-11-14T01:17:24.362Z,91.56
2018-11-14T01:18:24.365Z,91.26
2018-11-14T01:19:24.308Z,91.46
2018-11-14T01:20:24.319Z,91.46
2018-11-14T01:21:24.295Z,91.88
2018-11-14T01:22:24.274Z,91.67
2018-11-14T01:23:24.266Z,91.26
2018-11-14T01:24:24.280Z,91.82
2018-11-14T01:25:24.250Z,91.98
2018-11-14T01:26:24.282Z,91.26
2018-11-14T01:27:24.569Z,91.67
2018-11-14T01:28:24.209Z,91.98
2018-11-14T01:29:24.202Z,91.26
2018-11-14T01:30:24.212Z,91.42
2018-11-14T01:31:24.193Z,91.46
2018-11-14T01:32:24.169Z,90.64
2018-11-14T01:33:24.151Z,90.74
2018-11-14T01:34:24.142Z,91.01
2018-11-14T01:35:24.125Z,90.74
2018-11-14T01:36:24.149Z,90.95
2018-11-14T01:37:24.125Z,90.68
2018-11-14T01:38:24.088Z,90.58
2018-11-14T01:39:24.082Z,90.78
2018-11-14T01:40:24.075Z,90.68
2018-11-14T01:41:24.058Z,90.78
2018-11-14T01:42:24.083Z,90.68
2018-11-14T01:43:24.062Z,90.99
2018-11-14T01:44:24.022Z,90.89
2018-11-14T01:45:24.016Z,90.99
2018-11-14T01:46:24.006Z,90.89
2018-11-14T01:47:23.987Z,90.89
2018-11-14T01:48:24.001Z,90.93
2018-11-14T01:49:23.979Z,90.68
2018-11-14T01:50:23.960Z,90.78
2018-11-14T01:51:23.959Z,90.99
2018-11-14T01:52:23.939Z,90.93
2018-11-14T01:53:23.923Z,91.03
2018-11-14T01:54:23.941Z,90.72
2018-11-14T01:55:23.902Z,90.93
2018-11-14T01:56:24.496Z,90.93
2018-11-14T01:57:24.490Z,90.72
2018-11-14T01:58:23.868Z,90.72
2018-11-14T01:59:23.879Z,90.72
2018-11-14T02:00:23.865Z,90.72
2018-11-14T02:01:23.831Z,90.62
2018-11-14T02:02:23.840Z,90.83
2018-11-14T02:03:23.810Z,90.93
2018-11-14T02:04:23.795Z,90.93
2018-11-14T02:05:23.804Z,90.93
2018-11-14T02:06:23.788Z,90.83
2018-11-14T02:07:23.765Z,90.97
2018-11-14T02:08:23.753Z,91.49
2018-11-14T02:09:23.743Z,91.90
2018-11-14T02:10:23.730Z,91.38
2018-11-14T02:11:23.744Z,91.59
2018-11-14T02:12:23.737Z,91.38
2018-11-14T02:13:23.696Z,91.49
2018-11-14T02:14:23.687Z,91.59
2018-11-14T02:15:23.670Z,91.49
2018-11-14T02:16:23.677Z,91.49
2018-11-14T02:17:24.503Z,91.59
2018-11-14T02:18:23.698Z,91.07
2018-11-14T02:19:23.629Z,91.59
2018-11-14T02:20:23.620Z,91.49
2018-11-14T02:21:23.631Z,91.49
2018-11-14T02:22:23.598Z,91.59
2018-11-14T02:23:23.580Z,91.38
2018-11-14T02:24:23.587Z,91.69
2018-11-14T02:25:23.552Z,91.69
2018-11-14T02:26:23.553Z,91.59
2018-11-14T02:27:23.557Z,91.80
2018-11-14T02:28:23.528Z,91.90
2018-11-14T02:29:23.513Z,91.69
2018-11-14T02:30:23.516Z,91.69
2018-11-14T02:31:24.486Z,91.69
2018-11-14T02:32:23.481Z,92.00
2018-11-14T02:33:23.481Z,91.80
2018-11-14T02:34:23.458Z,92.11
2018-11-14T02:35:23.458Z,92.72
2018-11-14T02:36:23.445Z,92.00
2018-11-14T02:37:23.468Z,92.00
2018-11-14T02:38:23.420Z,92.48
2018-11-14T02:39:23.401Z,92.38
2018-11-14T02:40:23.388Z,92.48
2018-11-14T02:41:23.949Z,91.96
2018-11-14T02:42:23.400Z,92.07
2018-11-14T02:43:23.398Z,91.86
2018-11-14T02:44:23.343Z,92.27
2018-11-14T02:45:23.346Z,92.17
2018-11-14T02:46:23.325Z,91.71
2018-11-14T02:47:23.306Z,91.86
2018-11-14T02:48:23.321Z,91.82
2018-11-14T02:49:23.315Z,91.75
2018-11-14T02:50:23.278Z,92.07
2018-11-14T02:51:23.264Z,91.82
2018-11-14T02:52:23.251Z,91.82
2018-11-14T02:53:24.785Z,91.61
2018-11-14T02:54:23.258Z,91.30
2018-11-14T02:55:23.237Z,91.82
2018-11-14T02:56:24.004Z,90.99
2018-11-14T02:57:23.195Z,91.50
2018-11-14T02:58:23.187Z,91.40
2018-11-14T02:59:24.278Z,91.50
2018-11-14T03:00:23.195Z,91.40
2018-11-14T03:01:23.152Z,91.61
2018-11-14T03:02:23.138Z,91.40
2018-11-14T03:03:23.123Z,91.30
2018-11-14T03:04:23.120Z,91.61
2018-11-14T03:05:23.123Z,91.30
2018-11-14T03:06:23.111Z,91.61
2018-11-14T03:07:23.081Z,91.50
2018-11-14T03:08:23.064Z,91.40
2018-11-14T03:09:23.063Z,91.61
2018-11-14T03:10:23.043Z,91.61
2018-11-14T03:11:23.058Z,91.30
2018-11-14T03:12:23.080Z,91.71
2018-11-14T03:13:23.016Z,91.61
2018-11-14T03:14:23.001Z,91.50
2018-11-14T03:15:23.001Z,91.30
2018-11-14T03:16:22.986Z,91.30
2018-11-14T03:17:22.984Z,91.50
2018-11-14T03:18:22.977Z,91.09
2018-11-14T03:19:22.935Z,90.99
2018-11-14T03:20:22.933Z,91.30
2018-11-14T03:21:22.919Z,91.40
2018-11-14T03:22:22.931Z,91.50
2018-11-14T03:23:23.500Z,91.50
2018-11-14T03:24:22.909Z,91.30
2018-11-14T03:25:22.881Z,91.20
2018-11-14T03:26:22.864Z,90.99
2018-11-14T03:27:22.860Z,91.30
2018-11-14T03:28:22.860Z,91.40
2018-11-14T03:29:22.831Z,91.20
2018-11-14T03:30:22.872Z,91.30
2018-11-14T03:31:22.818Z,91.50
2018-11-14T03:32:22.803Z,91.82
2018-11-14T03:33:22.804Z,91.30
2018-11-14T03:34:22.777Z,91.09
2018-11-14T03:35:22.770Z,91.20
2018-11-14T03:36:22.771Z,91.50
2018-11-14T03:37:22.739Z,91.61
2018-11-14T03:38:22.768Z,91.30
2018-11-14T03:39:22.719Z,90.99
2018-11-14T03:40:22.708Z,91.30
2018-11-14T03:41:22.699Z,90.99
2018-11-14T03:42:22.701Z,91.50
2018-11-14T03:43:22.668Z,91.20
2018-11-14T03:44:22.695Z,91.20
2018-11-14T03:45:22.649Z,91.61
2018-11-14T03:46:22.647Z,91.30
2018-11-14T03:47:22.859Z,91.40
2018-11-14T03:48:22.634Z,91.30
2018-11-14T03:49:22.606Z,91.50
2018-11-14T03:50:22.610Z,90.89
2018-11-14T03:51:22.579Z,91.20
2018-11-14T03:52:22.574Z,91.09
2018-11-14T03:53:22.560Z,91.50
2018-11-14T03:54:22.564Z,91.71
2018-11-14T03:55:22.572Z,91.50
2018-11-14T03:56:22.522Z,91.50
2018-11-14T03:57:22.514Z,91.61
2018-11-14T03:58:22.529Z,91.40
2018-11-14T03:59:22.490Z,91.30
2018-11-14T04:00:22.496Z,91.30
2018-11-14T04:01:22.489Z,91.20
2018-11-14T04:02:22.496Z,91.30
2018-11-14T04:03:22.448Z,91.61
2018-11-14T04:04:22.437Z,91.50
2018-11-14T04:05:22.443Z,91.40
2018-11-14T04:06:22.413Z,91.20
2018-11-14T04:07:22.410Z,91.20
2018-11-14T04:08:22.393Z,91.20
2018-11-14T04:09:22.449Z,91.50
2018-11-14T04:10:22.366Z,91.30
2018-11-14T04:11:22.369Z,91.50
2018-11-14T04:12:22.369Z,91.50
2018-11-14T04:13:22.335Z,91.50
2018-11-14T04:14:22.326Z,91.40
2018-11-14T04:15:23.001Z,91.50
2018-11-14T04:16:22.301Z,91.61
2018-11-14T04:17:22.324Z,91.50
2018-11-14T04:18:22.267Z,91.50
2018-11-14T04:19:22.268Z,90.99
2018-11-14T04:20:22.254Z,91.40
2018-11-14T04:21:22.242Z,91.86
2018-11-14T04:22:22.228Z,91.44
2018-11-14T04:23:22.263Z,91.82
2018-11-14T04:24:22.209Z,91.50
2018-11-14T04:25:22.201Z,91.55
2018-11-14T04:26:22.192Z,91.92
2018-11-14T04:27:22.169Z,91.82
2018-11-14T04:28:22.949Z,91.50
2018-11-14T04:29:22.274Z,91.50
2018-11-14T04:30:22.139Z,91.50
2018-11-14T04:31:22.129Z,91.34
2018-11-14T04:32:22.116Z,91.82
2018-11-14T04:33:22.109Z,91.82
2018-11-14T04:34:22.120Z,91.82
2018-11-14T04:35:23.954Z,91.30
2018-11-14T04:36:22.077Z,91.40
2018-11-14T04:37:22.064Z,91.40
2018-11-14T04:38:22.052Z,91.40
2018-11-14T04:39:22.056Z,91.82
2018-11-14T04:40:22.028Z,91.82
2018-11-14T04:41:22.033Z,91.50
2018-11-14T04:42:22.006Z,91.92
2018-11-14T04:43:22.001Z,91.71
2018-11-14T04:44:21.980Z,91.50
2018-11-14T04:45:22.001Z,91.30
2018-11-14T04:46:21.965Z,91.50
2018-11-14T04:47:21.963Z,91.50
2018-11-14T04:48:21.940Z,91.30
2018-11-14T04:49:21.925Z,91.50
2018-11-14T04:50:21.913Z,91.82
2018-11-14T04:51:21.918Z,91.82
2018-11-14T04:52:21.885Z,91.61
2018-11-14T04:53:21.904Z,91.71
2018-11-14T04:54:33.519Z,91.50
2018-11-14T04:55:34.229Z,91.61
2018-11-14T04:56:32.708Z,91.65
2018-11-14T04:58:49.653Z,91.71
2018-11-14T04:59:59.667Z,91.30
2018-11-14T05:00:58.154Z,91.40
2018-11-14T05:01:59.258Z,91.40
2018-11-14T05:03:03.002Z,91.30
2018-11-14T05:03:49.542Z,91.92
2018-11-14T05:04:49.428Z,91.92
2018-11-14T05:05:49.411Z,91.61
2018-11-14T05:06:49.446Z,92.23
2018-11-14T05:07:49.407Z,92.48
2018-11-14T05:08:49.393Z,91.92
2018-11-14T05:09:49.348Z,91.71
2018-11-14T05:10:49.387Z,91.75
2018-11-14T05:11:49.355Z,91.86
2018-11-14T05:12:49.385Z,92.07
2018-11-14T05:13:49.338Z,91.96
2018-11-14T05:14:49.986Z,91.86
2018-11-14T05:15:49.282Z,91.34
2018-11-14T05:16:49.313Z,91.96
2018-11-14T05:17:49.336Z,92.07
2018-11-14T05:18:49.290Z,92.07
2018-11-14T05:19:49.261Z,91.86
2018-11-14T05:20:49.236Z,91.30
2018-11-14T05:21:49.232Z,92.07
2018-11-14T05:22:49.234Z,91.30
2018-11-14T05:23:49.235Z,91.50
2018-11-14T05:24:49.290Z,91.55
2018-11-14T05:25:49.204Z,91.40
2018-11-14T05:26:49.195Z,91.24
2018-11-14T05:27:49.173Z,91.44
2018-11-14T05:28:49.146Z,91.34
2018-11-14T05:29:49.217Z,91.44
2018-11-14T05:30:49.160Z,91.44
2018-11-14T05:31:49.271Z,91.44
2018-11-14T05:32:49.093Z,91.55
2018-11-14T05:33:49.075Z,91.44
2018-11-14T05:34:49.080Z,91.55
2018-11-14T05:35:49.057Z,91.86
2018-11-14T05:36:49.035Z,91.96
2018-11-14T05:37:49.033Z,91.96
2018-11-14T05:38:49.012Z,92.00
2018-11-14T05:39:49.177Z,91.80
2018-11-14T05:40:49.014Z,91.90
2018-11-14T05:41:48.987Z,91.80
2018-11-14T05:42:48.988Z,92.32
2018-11-14T05:43:48.957Z,92.72
2018-11-14T05:44:48.945Z,92.32
2018-11-14T05:45:48.933Z,92.52
2018-11-14T05:46:48.931Z,91.90
2018-11-14T05:47:48.908Z,92.00
2018-11-14T05:48:48.907Z,91.69
2018-11-14T05:49:48.884Z,91.53
2018-11-14T05:50:48.893Z,91.42
2018-11-14T05:51:48.867Z,91.84
2018-11-14T05:52:48.855Z,92.05
2018-11-14T05:53:48.846Z,91.94
2018-11-14T05:54:48.882Z,91.94
2018-11-14T05:55:48.828Z,91.42
2018-11-14T05:56:48.835Z,91.63
2018-11-14T05:57:48.800Z,91.78
2018-11-14T05:58:48.789Z,91.67
2018-11-14T05:59:48.774Z,91.47
2018-11-14T06:00:48.785Z,91.36
2018-11-14T06:01:48.752Z,91.57
2018-11-14T06:02:48.759Z,91.88
2018-11-14T06:03:48.729Z,91.47
2018-11-14T06:04:48.713Z,91.51
2018-11-14T06:05:48.725Z,91.61
2018-11-14T06:06:48.714Z,91.93
2018-11-14T06:07:48.705Z,91.61
2018-11-14T06:08:48.675Z,91.93
2018-11-14T06:09:48.666Z,92.44
2018-11-14T06:10:48.659Z,92.24
2018-11-14T06:11:48.634Z,92.44
2018-11-14T06:12:48.646Z,92.13
2018-11-14T06:13:48.625Z,92.44
2018-11-14T06:14:48.613Z,92.59
2018-11-14T06:15:48.614Z,92.80
2018-11-14T06:16:48.580Z,92.24
2018-11-14T06:17:49.445Z,92.55
2018-11-14T06:18:48.607Z,92.69
2018-11-14T06:19:48.544Z,93.21
2018-11-14T06:20:48.532Z,93.00
2018-11-14T06:21:48.579Z,93.41
2018-11-14T06:22:48.520Z,93.41
2018-11-14T06:23:48.592Z,93.83
2018-11-14T06:24:48.552Z,93.10
2018-11-14T06:25:48.480Z,94.10
2018-11-14T06:26:48.467Z,93.93
2018-11-14T06:27:48.467Z,94.62
2018-11-14T06:28:48.444Z,94.62
2018-11-14T06:29:48.519Z,94.41
2018-11-14T06:30:48.458Z,94.31
2018-11-14T06:31:48.410Z,94.51
2018-11-14T06:32:48.412Z,94.62
2018-11-14T06:33:48.389Z,94.62
2018-11-14T06:34:48.951Z,94.51
2018-11-14T06:35:48.392Z,94.35
2018-11-14T06:36:48.355Z,94.31
2018-11-14T06:37:48.344Z,94.31
2018-11-14T06:38:48.328Z,94.72
2018-11-14T06:39:48.323Z,94.51
2018-11-14T06:40:48.334Z,94.51
2018-11-14T06:41:48.379Z,94.51
2018-11-14T06:42:48.296Z,94.51
2018-11-14T06:43:48.284Z,94.62
2018-11-14T06:44:48.352Z,93.99
2018-11-14T06:45:48.916Z,93.89
2018-11-14T06:46:48.271Z,93.79
2018-11-14T06:47:48.258Z,93.89
2018-11-14T06:48:48.218Z,93.99
2018-11-14T06:49:48.216Z,93.68
2018-11-14T06:50:58.878Z,93.68
2018-11-14T06:51:48.231Z,92.96
2018-11-14T06:52:48.258Z,93.21
2018-11-14T06:53:48.243Z,92.59
2018-11-14T06:54:48.165Z,92.69
2018-11-14T06:55:48.199Z,92.59
2018-11-14T06:56:48.173Z,92.28
2018-11-14T06:57:48.150Z,92.49
2018-11-14T06:58:48.229Z,92.80
2018-11-14T06:59:48.199Z,92.07
2018-11-14T07:00:48.141Z,92.28
2018-11-14T07:01:48.186Z,92.90
2018-11-14T07:02:49.026Z,92.22
2018-11-14T07:03:48.181Z,92.07
2018-11-14T07:04:48.082Z,92.11
2018-11-14T07:05:48.249Z,91.70
2018-11-14T07:06:48.012Z,91.55
2018-11-14T07:07:48.023Z,91.80
2018-11-14T07:08:48.016Z,92.32
2018-11-14T07:09:47.975Z,92.53
2018-11-14T07:10:47.974Z,92.63
2018-11-14T07:11:47.957Z,92.53
2018-11-14T07:12:47.947Z,93.15
2018-11-14T07:13:47.960Z,92.94
2018-11-14T07:14:47.926Z,92.74
2018-11-14T07:15:47.913Z,92.94
2018-11-14T07:16:47.904Z,93.04
2018-11-14T07:17:47.930Z,93.10
2018-11-14T07:18:47.870Z,92.94
2018-11-14T07:19:47.866Z,93.04
2018-11-14T07:20:47.853Z,92.74
2018-11-14T07:21:47.868Z,92.74
2018-11-14T07:22:47.834Z,92.74
2018-11-14T07:23:47.965Z,92.32
2018-11-14T07:24:47.850Z,93.04
2018-11-14T07:25:47.796Z,93.15
2018-11-14T07:26:47.786Z,93.15
2018-11-14T07:27:47.782Z,93.52
2018-11-14T07:28:47.760Z,93.52
2018-11-14T07:29:47.761Z,93.93
2018-11-14T07:30:47.739Z,94.35
2018-11-14T07:31:47.724Z,94.45
2018-11-14T07:32:47.717Z,94.66
2018-11-14T07:33:47.727Z,94.62
2018-11-14T07:34:47.699Z,94.72
2018-11-14T07:35:47.688Z,94.93
2018-11-14T07:36:47.680Z,94.72
2018-11-14T07:37:47.736Z,95.71
2018-11-14T07:38:47.676Z,97.74
2018-11-14T07:39:47.669Z,98.52
2018-11-14T07:40:47.629Z,98.10
2018-11-14T07:41:47.657Z,98.16
2018-11-14T07:42:47.603Z,98.57
2018-11-14T07:43:47.695Z,98.16
2018-11-14T07:44:47.589Z,97.64
2018-11-14T07:45:47.619Z,96.92
2018-11-14T07:46:47.622Z,96.72
2018-11-14T07:47:47.633Z,96.41
2018-11-14T07:48:48.531Z,96.41
2018-11-14T07:49:47.567Z,96.72
2018-11-14T07:50:47.527Z,96.77
2018-11-14T07:51:47.523Z,96.67
2018-11-14T07:52:47.490Z,96.26
2018-11-14T07:53:47.504Z,95.43
2018-11-14T07:54:47.540Z,94.81
2018-11-14T07:55:47.452Z,94.54
2018-11-14T07:56:47.472Z,93.30
2018-11-14T07:57:47.451Z,93.72
2018-11-14T07:58:47.431Z,93.41
2018-11-14T07:59:47.428Z,92.79
2018-11-14T08:00:47.403Z,92.58
2018-11-14T08:01:47.387Z,92.58
2018-11-14T08:02:47.403Z,92.27
2018-11-14T08:03:47.362Z,92.58
2018-11-14T08:04:47.349Z,92.38
2018-11-14T08:05:47.357Z,92.38
2018-11-14T08:06:47.330Z,92.27
2018-11-14T08:07:47.357Z,92.79
2018-11-14T08:08:47.313Z,92.07
2018-11-14T08:09:47.294Z,92.68
2018-11-14T08:10:47.291Z,92.27
2018-11-14T08:11:47.301Z,92.38
2018-11-14T08:12:47.276Z,91.75
2018-11-14T08:13:47.279Z,91.40
2018-11-14T08:14:47.236Z,91.55
2018-11-14T08:15:47.228Z,91.50
2018-11-14T08:16:47.990Z,91.30
2018-11-14T08:17:48.266Z,91.50
2018-11-14T08:18:47.280Z,90.99
2018-11-14T08:19:47.204Z,91.20
2018-11-14T08:20:47.183Z,91.20
2018-11-14T08:21:47.160Z,91.30
2018-11-14T08:22:47.150Z,91.36
2018-11-14T08:23:47.135Z,91.36
2018-11-14T08:24:47.192Z,91.77
2018-11-14T08:25:47.131Z,90.84
2018-11-14T08:26:47.100Z,90.84
2018-11-14T08:27:47.093Z,90.84
2018-11-14T08:28:47.075Z,90.64
2018-11-14T08:29:47.086Z,90.95
2018-11-14T08:30:47.175Z,90.95
2018-11-14T08:31:47.064Z,90.64
2018-11-14T08:32:47.031Z,90.64
2018-11-14T08:33:47.032Z,90.64
2018-11-14T08:34:47.010Z,90.95
2018-11-14T08:35:47.011Z,90.74
2018-11-14T08:36:46.987Z,90.53
2018-11-14T08:37:46.989Z,90.70
2018-11-14T08:38:46.971Z,90.74
2018-11-14T08:39:46.951Z,90.59
2018-11-14T08:40:46.945Z,90.70
2018-11-14T08:41:46.944Z,90.59
2018-11-14T08:42:46.913Z,90.19
2018-11-14T08:43:46.936Z,89.56
2018-11-14T08:44:46.919Z,90.28
2018-11-14T08:45:46.881Z,89.87
2018-11-14T08:46:46.896Z,89.67
2018-11-14T08:47:46.856Z,89.62
2018-11-14T08:48:46.842Z,89.94
2018-11-14T08:49:46.841Z,89.62
2018-11-14T08:50:46.855Z,89.83
2018-11-14T08:51:46.832Z,89.94
2018-11-14T08:52:46.828Z,89.94
2018-11-14T08:53:46.794Z,89.52
2018-11-14T08:54:46.787Z,89.22
2018-11-14T08:55:46.767Z,89.22
2018-11-14T08:56:46.782Z,89.01
2018-11-14T08:57:46.767Z,88.90
2018-11-14T08:58:46.774Z,89.11
2018-11-14T08:59:46.724Z,88.90
2018-11-14T09:00:46.712Z,90.04
2018-11-14T09:01:46.706Z,89.73
2018-11-14T09:02:46.709Z,90.04
2018-11-14T09:03:46.701Z,89.79
2018-11-14T09:04:46.666Z,89.89
2018-11-14T09:05:46.664Z,89.94
2018-11-14T09:06:46.649Z,90.10
2018-11-14T09:07:46.662Z,90.10
2018-11-14T09:08:46.665Z,89.58
2018-11-14T09:09:46.613Z,89.48
2018-11-14T09:10:46.598Z,89.58
2018-11-14T09:11:46.588Z,90.10
2018-11-14T09:12:46.602Z,89.79
2018-11-14T09:13:46.571Z,89.79
2018-11-14T09:14:46.668Z,89.58
2018-11-14T09:15:46.540Z,89.69
2018-11-14T09:16:47.536Z,88.65
2018-11-14T09:17:46.518Z,89.75
2018-11-14T09:18:46.553Z,89.65
2018-11-14T09:19:46.493Z,89.03
2018-11-14T09:20:46.522Z,88.51
2018-11-14T09:21:47.470Z,88.62
2018-11-14T09:22:46.461Z,88.37
2018-11-14T09:23:46.477Z,88.06
2018-11-14T09:24:46.998Z,86.82
2018-11-14T09:25:46.474Z,86.97
2018-11-14T09:26:46.435Z,86.52
2018-11-14T09:27:46.405Z,86.41
2018-11-14T09:28:46.392Z,86.41
2018-11-14T09:29:46.382Z,85.49
2018-11-14T09:30:46.372Z,86.41
2018-11-14T09:31:46.370Z,86.61
2018-11-14T09:32:46.376Z,86.47
2018-11-14T09:33:46.339Z,86.47
2018-11-14T09:34:46.409Z,86.37
2018-11-14T09:35:46.331Z,85.34
2018-11-14T09:36:46.303Z,85.44
2018-11-14T09:37:46.294Z,85.55
2018-11-14T09:38:46.307Z,86.06
2018-11-14T09:39:46.271Z,85.65
2018-11-14T09:40:46.319Z,85.65
2018-11-14T09:41:46.349Z,85.44
2018-11-14T09:42:46.242Z,85.44
2018-11-14T09:43:46.279Z,85.44
2018-11-14T09:44:46.231Z,84.83
2018-11-14T09:45:46.201Z,84.21
2018-11-14T09:46:46.199Z,84.72
2018-11-14T09:47:46.227Z,84.52
2018-11-14T09:48:46.168Z,84.93
2018-11-14T09:49:46.154Z,85.14
2018-11-14T09:50:46.156Z,85.75
2018-11-14T09:51:46.126Z,85.55
2018-11-14T09:52:46.132Z,85.30
2018-11-14T09:53:46.116Z,85.75
2018-11-14T09:54:46.100Z,85.92
2018-11-14T09:55:46.088Z,86.13
2018-11-14T09:56:46.101Z,85.51
2018-11-14T09:57:46.079Z,86.13
2018-11-14T09:58:46.083Z,84.69
2018-11-14T09:59:46.038Z,85.68
2018-11-14T10:00:46.162Z,84.54
2018-11-14T10:01:46.017Z,84.54
2018-11-14T10:02:46.072Z,84.50
2018-11-14T10:03:45.995Z,82.96
2018-11-14T10:04:45.988Z,83.06
2018-11-14T10:05:46.048Z,83.17
2018-11-14T10:06:45.961Z,84.20
2018-11-14T10:07:45.969Z,83.48
2018-11-14T10:08:45.940Z,82.45
2018-11-14T10:09:45.936Z,83.27
2018-11-14T10:10:45.993Z,81.93
2018-11-14T10:11:45.916Z,79.94
2018-11-14T10:12:45.891Z,80.70
2018-11-14T10:13:45.904Z,80.77
2018-11-14T10:14:45.873Z,80.46
2018-11-14T10:15:45.949Z,81.28
2018-11-14T10:16:45.864Z,80.66
2018-11-14T10:17:45.825Z,80.97
2018-11-14T10:18:46.516Z,80.97
2018-11-14T10:19:45.815Z,78.20
2018-11-14T10:20:46.506Z,78.71
2018-11-14T10:21:45.799Z,79.94
2018-11-14T10:22:45.778Z,78.40
2018-11-14T10:23:45.797Z,78.50
2018-11-14T10:24:45.752Z,79.22
2018-11-14T10:25:45.746Z,79.53
2018-11-14T10:26:45.732Z,79.63
2018-11-14T10:27:45.721Z,80.73
2018-11-14T10:28:45.737Z,81.34
2018-11-14T10:29:45.715Z,78.98
2018-11-14T10:30:45.712Z,79.19
2018-11-14T10:31:45.823Z,79.49
2018-11-14T10:32:45.665Z,79.19
2018-11-14T10:33:45.656Z,77.75
2018-11-14T10:34:45.669Z,78.47
2018-11-14T10:35:45.648Z,78.40
2018-11-14T10:36:45.614Z,79.53
2018-11-14T10:37:45.604Z,78.92
2018-11-14T10:38:45.599Z,78.64
2018-11-14T10:39:45.581Z,78.64
2018-11-14T10:40:45.588Z,80.49
2018-11-14T10:41:45.573Z,79.26
2018-11-14T10:42:45.545Z,80.60
2018-11-14T10:43:45.534Z,80.49
2018-11-14T10:44:45.548Z,79.57
2018-11-14T10:45:45.514Z,80.08
2018-11-14T10:46:45.503Z,78.13
2018-11-14T10:47:45.506Z,78.23
2018-11-14T10:48:45.476Z,80.80
2018-11-14T10:49:45.467Z,80.25
2018-11-14T10:50:45.530Z,79.94
2018-11-14T10:51:45.468Z,80.25
2018-11-14T10:52:45.435Z,77.75
2018-11-14T10:53:45.452Z,78.06
2018-11-14T10:54:45.405Z,75.38
2018-11-14T10:55:45.427Z,77.95
2018-11-14T10:56:45.383Z,77.81
2018-11-14T10:57:45.373Z,78.64
2018-11-14T10:58:45.368Z,78.23
2018-11-14T10:59:45.355Z,77.92
2018-11-14T11:00:45.357Z,78.09
2018-11-14T11:01:45.355Z,78.05
2018-11-14T11:02:45.316Z,77.95
2018-11-14T11:03:45.307Z,75.08
2018-11-14T11:04:45.294Z,76.51
2018-11-14T11:05:45.276Z,76.89
2018-11-14T11:06:45.287Z,74.53
2018-11-14T11:07:45.306Z,74.43
2018-11-14T11:08:45.338Z,74.94
2018-11-14T11:09:45.250Z,73.50
2018-11-14T11:10:45.232Z,74.66
2018-11-14T11:11:45.212Z,74.46
2018-11-14T11:12:45.234Z,74.02
2018-11-14T11:13:45.218Z,73.61
2018-11-14T11:14:45.178Z,73.19
2018-11-14T11:15:45.169Z,72.68
2018-11-14T11:16:45.179Z,74.32
2018-11-14T11:17:45.156Z,72.68
2018-11-14T11:18:45.145Z,76.17
2018-11-14T11:19:45.122Z,74.43
2018-11-14T11:20:45.118Z,76.17
2018-11-14T11:21:45.105Z,75.93
2018-11-14T11:22:45.110Z,73.36
2018-11-14T11:23:45.085Z,73.47
2018-11-14T11:24:45.101Z,73.68
2018-11-14T11:25:45.055Z,73.78
2018-11-14T11:26:45.054Z,73.68
2018-11-14T11:27:45.036Z,74.60
2018-11-14T11:28:45.034Z,74.29
2018-11-14T11:29:45.012Z,73.88
2018-11-14T11:30:45.050Z,74.60
2018-11-14T11:31:45.028Z,73.27
2018-11-14T11:32:44.969Z,75.93
2018-11-14T11:33:45.956Z,74.15
2018-11-14T11:34:44.952Z,74.77
2018-11-14T11:35:44.971Z,73.13
2018-11-14T11:36:44.944Z,72.52
2018-11-14T11:37:44.923Z,74.05
2018-11-14T11:38:44.910Z,74.15
2018-11-14T11:39:44.908Z,73.54
2018-11-14T11:40:44.888Z,75.18
2018-11-14T11:41:44.894Z,72.72
2018-11-14T11:42:44.861Z,71.90
2018-11-14T11:43:44.849Z,71.45
2018-11-14T11:44:44.870Z,70.23
2018-11-14T11:45:44.834Z,71.77
2018-11-14T11:46:44.818Z,69.82
2018-11-14T11:47:44.820Z,68.69
2018-11-14T11:48:44.790Z,69.31
2018-11-14T11:49:44.778Z,68.28
2018-11-14T11:50:44.776Z,67.16
2018-11-14T11:51:45.494Z,69.41
2018-11-14T11:52:44.749Z,67.94
2018-11-14T11:53:44.754Z,68.15
2018-11-14T11:54:44.716Z,67.74
2018-11-14T11:55:44.739Z,67.43
2018-11-14T11:56:44.698Z,68.08
2018-11-14T11:57:44.691Z,67.57
2018-11-14T11:58:44.673Z,67.29
2018-11-14T11:59:45.522Z,69.44
2018-11-14T12:00:44.737Z,69.54
2018-11-14T12:01:44.680Z,69.24
2018-11-14T12:02:44.633Z,70.67
2018-11-14T12:03:44.628Z,71.56
2018-11-14T12:04:44.615Z,70.03
2018-11-14T12:05:44.632Z,69.41
2018-11-14T12:06:44.592Z,68.38
2018-11-14T12:07:44.613Z,69.48
2018-11-14T12:08:44.572Z,70.71
2018-11-14T12:09:44.554Z,69.89
2018-11-14T12:10:44.633Z,69.68
2018-11-14T12:11:44.534Z,69.48
2018-11-14T12:12:44.608Z,69.68
2018-11-14T12:13:44.659Z,71.53
2018-11-14T12:14:44.505Z,71.42
2018-11-14T12:15:44.486Z,71.94
2018-11-14T12:16:44.478Z,70.61
2018-11-14T12:17:44.550Z,70.67
2018-11-14T12:18:44.482Z,69.48
2018-11-14T12:19:44.459Z,69.89
2018-11-14T12:20:44.429Z,70.50
2018-11-14T12:21:44.959Z,69.38
2018-11-14T12:22:44.412Z,69.99
2018-11-14T12:23:44.479Z,70.06
2018-11-14T12:24:44.414Z,69.45
2018-11-14T12:25:45.015Z,69.75
2018-11-14T12:26:44.371Z,69.55
2018-11-14T12:27:44.453Z,69.85
2018-11-14T12:28:44.348Z,69.45
2018-11-14T12:29:44.371Z,68.55
2018-11-14T12:30:44.397Z,69.27
2018-11-14T12:31:44.321Z,69.48
2018-11-14T12:32:44.300Z,70.50
2018-11-14T12:33:44.334Z,71.01
2018-11-14T12:34:44.409Z,71.19
2018-11-14T12:35:44.335Z,70.91
2018-11-14T12:36:44.246Z,70.37
2018-11-14T12:37:44.252Z,67.81
2018-11-14T12:38:44.263Z,68.05
2018-11-14T12:39:44.224Z,69.96
2018-11-14T12:40:44.230Z,69.99
2018-11-14T12:41:44.249Z,70.67
2018-11-14T12:42:44.190Z,69.45
2018-11-14T12:43:44.176Z,68.87
2018-11-14T12:44:44.179Z,69.17
2018-11-14T12:45:44.157Z,67.33
2018-11-14T12:46:44.159Z,69.89
2018-11-14T12:47:44.132Z,69.38
2018-11-14T12:48:44.175Z,68.55
2018-11-14T12:49:44.117Z,67.74
2018-11-14T12:50:44.127Z,68.55
2018-11-14T12:51:44.102Z,69.38
2018-11-14T12:52:44.135Z,69.58
2018-11-14T12:53:44.065Z,69.58